Time;durP1;ratioP1;P1;durP2;ratioP2;P2;SDS_P1;SDS_P2;PMS_P1;PMS_P2;Temp;Humidity;BMP_temperature;BMP_pressure;BME280_temperature;BME280_humidity;BME280_pressure;Samples;Min_cycle;Max_cycle;Signal;HPM_P1;HPM_P2
2024/02/14 00:00:33;;;;;;;11.65;5.90;;;7.10;99.90;;;;;;5064509;28;20062;-62
2024/02/14 00:02:58;;;;;;;6.15;5.20;;;7.10;99.90;;;;;;5076941;28;20363;-62
2024/02/14 00:05:24;;;;;;;8.65;6.10;;;7.10;99.90;;;;;;5096273;28;20127;-62
2024/02/14 00:07:49;;;;;;;7.80;5.18;;;7.10;99.90;;;;;;5096378;28;20039;-62
2024/02/14 00:10:15;;;;;;;6.93;5.15;;;7.10;99.90;;;;;;5079517;28;20047;-62
2024/02/14 00:12:41;;;;;;;9.45;6.15;;;7.10;99.90;;;;;;5103945;27;20540;-61
2024/02/14 00:15:07;;;;;;;8.27;5.47;;;7.10;99.90;;;;;;5098115;28;20125;-61
2024/02/14 00:17:34;;;;;;;10.20;5.85;;;7.10;99.90;;;;;;5077061;28;20043;-61
2024/02/14 00:20:04;;;;;;;6.55;5.95;;;7.10;99.90;;;;;;5071389;28;20054;-61
2024/02/14 00:22:30;;;;;;;9.05;5.80;;;7.10;99.90;;;;;;5076398;28;20105;-61
2024/02/14 00:24:56;;;;;;;9.82;6.47;;;7.10;99.90;;;;;;5104035;28;20024;-62
2024/02/14 00:27:22;;;;;;;10.05;6.57;;;7.10;99.90;;;;;;5080744;28;20240;-62
2024/02/14 00:29:48;;;;;;;6.40;5.45;;;7.10;99.90;;;;;;5116828;27;20097;-62
2024/02/14 00:32:14;;;;;;;6.82;5.65;;;7.10;99.90;;;;;;5084789;28;20047;-62
2024/02/14 00:34:39;;;;;;;8.13;5.88;;;7.10;99.90;;;;;;5081856;28;20039;-61
2024/02/14 00:37:05;;;;;;;6.68;5.60;;;7.10;99.90;;;;;;5087004;28;20096;-62
2024/02/14 00:39:31;;;;;;;7.00;5.88;;;7.20;99.90;;;;;;5081881;28;20527;-62
2024/02/14 00:41:56;;;;;;;9.90;6.18;;;7.20;99.90;;;;;;5084998;28;20046;-61
2024/02/14 00:44:22;;;;;;;7.35;5.95;;;7.20;99.90;;;;;;5081849;28;20046;-61
2024/02/14 00:46:48;;;;;;;7.68;6.75;;;7.20;99.90;;;;;;5087658;28;20440;-61
2024/02/14 00:49:14;;;;;;;5.97;5.40;;;7.20;99.90;;;;;;5078240;28;20028;-61
2024/02/14 00:51:40;;;;;;;7.30;6.60;;;7.20;99.90;;;;;;5116118;27;20126;-62
2024/02/14 00:54:06;;;;;;;8.73;6.10;;;7.20;99.90;;;;;;5084740;28;20566;-61
2024/02/14 00:56:31;;;;;;;7.05;6.40;;;7.20;99.90;;;;;;5087366;28;20126;-62
2024/02/14 00:58:57;;;;;;;7.50;5.97;;;7.20;99.90;;;;;;5095325;28;20126;-61
2024/02/14 01:01:23;;;;;;;6.47;5.88;;;7.20;99.90;;;;;;5102523;28;20039;-61
2024/02/14 01:03:49;;;;;;;6.18;5.57;;;7.30;99.90;;;;;;5100280;28;20029;-62
2024/02/14 01:06:18;;;;;;;8.57;5.85;;;7.20;99.90;;;;;;5086417;28;20043;-62
2024/02/14 01:08:44;;;;;;;6.20;5.60;;;7.30;99.90;;;;;;5084605;28;20516;-62
2024/02/14 01:11:10;;;;;;;6.13;5.50;;;7.30;99.90;;;;;;5069515;28;20044;-62
2024/02/14 01:13:35;;;;;;;6.78;5.78;;;7.30;99.90;;;;;;5104077;28;20054;-61
2024/02/14 01:16:02;;;;;;;6.68;6.07;;;7.30;99.90;;;;;;5101323;28;20035;-62
2024/02/14 01:18:28;;;;;;;6.30;5.70;;;7.40;99.90;;;;;;5081429;28;20067;-62
2024/02/14 01:20:54;;;;;;;6.78;6.13;;;7.40;99.90;;;;;;5084897;28;20050;-61
2024/02/14 01:23:19;;;;;;;5.93;5.32;;;7.40;99.90;;;;;;5073895;28;20035;-61
2024/02/14 01:25:45;;;;;;;6.25;5.65;;;7.40;99.90;;;;;;5095689;28;20044;-62
2024/02/14 01:28:11;;;;;;;5.93;5.38;;;7.40;99.90;;;;;;5081741;28;20043;-62
2024/02/14 01:30:37;;;;;;;5.97;5.07;;;7.40;99.90;;;;;;5097800;28;20039;-61
2024/02/14 01:33:05;;;;;;;6.13;5.50;;;7.50;99.90;;;;;;5100974;28;20031;-62
2024/02/14 01:35:31;;;;;;;6.20;5.70;;;7.40;99.90;;;;;;5078557;28;20051;-61
2024/02/14 01:37:57;;;;;;;6.43;5.53;;;7.50;99.90;;;;;;5074058;28;20039;-61
2024/02/14 01:40:23;;;;;;;5.90;5.40;;;7.50;99.90;;;;;;5084180;28;20048;-62
2024/02/14 01:42:48;;;;;;;5.60;4.47;;;7.50;99.90;;;;;;5109722;27;20040;-61
2024/02/14 01:45:14;;;;;;;5.82;5.30;;;7.50;99.90;;;;;;5099171;28;20092;-61
2024/02/14 01:47:41;;;;;;;5.32;4.93;;;7.60;99.90;;;;;;5104541;27;20136;-61
2024/02/14 01:50:11;;;;;;;5.60;4.63;;;7.60;99.90;;;;;;5113205;27;20036;-61
2024/02/14 01:52:40;;;;;;;6.97;5.53;;;7.60;99.90;;;;;;5070764;28;20048;-61
2024/02/14 01:55:07;;;;;;;5.40;4.70;;;7.70;99.90;;;;;;5074540;28;20123;-62
2024/02/14 01:57:34;;;;;;;4.93;4.50;;;7.70;99.90;;;;;;5099412;28;20040;-62
2024/02/14 02:00:07;;;;;;;5.40;4.32;;;7.70;99.90;;;;;;5100252;28;20413;-62
2024/02/14 02:02:36;;;;;;;6.18;4.50;;;7.80;99.90;;;;;;5095069;28;20089;-62
2024/02/14 02:05:02;;;;;;;4.97;4.47;;;7.80;99.90;;;;;;5081328;28;20071;-62
2024/02/14 02:07:28;;;;;;;4.30;4.00;;;7.80;99.90;;;;;;5046401;28;20043;-62
2024/02/14 02:09:53;;;;;;;4.68;4.28;;;7.80;99.90;;;;;;5078965;28;20042;-61
2024/02/14 02:12:19;;;;;;;4.65;4.25;;;7.90;99.90;;;;;;5097385;28;20292;-62
2024/02/14 02:14:45;;;;;;;4.22;3.92;;;7.90;99.90;;;;;;5083255;28;20830;-62
2024/02/14 02:17:12;;;;;;;4.20;3.80;;;7.90;99.90;;;;;;5079227;28;20036;-62
2024/02/14 02:19:38;;;;;;;4.28;3.97;;;8.00;99.90;;;;;;5095605;28;20445;-61
2024/02/14 02:22:04;;;;;;;4.57;4.18;;;7.90;99.90;;;;;;5088417;28;20040;-61
2024/02/14 02:24:30;;;;;;;4.38;3.90;;;8.00;99.90;;;;;;5109284;27;20067;-62
2024/02/14 02:26:56;;;;;;;4.20;3.67;;;8.00;99.90;;;;;;5096123;28;20079;-61
2024/02/14 02:29:22;;;;;;;4.50;4.20;;;8.00;99.90;;;;;;5076125;28;20032;-61
2024/02/14 02:31:48;;;;;;;3.88;3.58;;;8.00;99.90;;;;;;5079365;28;20032;-62
2024/02/14 02:34:13;;;;;;;3.75;3.45;;;8.10;99.90;;;;;;5094352;28;21490;-62
2024/02/14 02:36:41;;;;;;;5.82;3.10;;;8.10;99.90;;;;;;5075551;28;20669;-61
2024/02/14 02:39:07;;;;;;;3.70;3.40;;;8.10;99.90;;;;;;5075556;28;20079;-62
2024/02/14 02:41:33;;;;;;;3.63;3.33;;;8.10;99.90;;;;;;5094585;28;20071;-61
2024/02/14 02:43:59;;;;;;;4.30;3.90;;;8.10;99.90;;;;;;5096897;28;20080;-62
2024/02/14 02:46:25;;;;;;;4.00;3.70;;;8.10;99.90;;;;;;5081554;28;20032;-62
2024/02/14 02:48:54;;;;;;;3.65;3.35;;;8.20;99.90;;;;;;5076184;28;20071;-62
2024/02/14 02:51:20;;;;;;;4.05;3.70;;;8.20;99.90;;;;;;5102829;27;20052;-61
2024/02/14 02:53:46;;;;;;;3.30;3.10;;;8.20;99.90;;;;;;5096938;28;20042;-62
2024/02/14 02:56:14;;;;;;;3.22;3.03;;;8.20;99.90;;;;;;5094151;28;20450;-62
2024/02/14 02:58:40;;;;;;;3.55;3.25;;;8.20;99.90;;;;;;5067887;28;20122;-62
2024/02/14 03:01:09;;;;;;;3.78;3.47;;;8.20;99.90;;;;;;5081821;28;20173;-61
2024/02/14 03:03:36;;;;;;;3.40;3.08;;;8.30;99.90;;;;;;5093881;28;20072;-62
2024/02/14 03:06:03;;;;;;;3.95;3.65;;;8.20;99.90;;;;;;5097468;28;20081;-62
2024/02/14 03:08:30;;;;;;;3.78;3.47;;;8.30;99.90;;;;;;5094878;28;20608;-61
2024/02/14 03:10:59;;;;;;;4.85;3.88;;;8.30;99.90;;;;;;5080433;28;20043;-62
2024/02/14 03:13:26;;;;;;;4.07;3.78;;;8.30;99.90;;;;;;5095764;28;20450;-62
2024/02/14 03:15:52;;;;;;;3.70;3.50;;;8.40;99.90;;;;;;5095123;28;20366;-62
2024/02/14 03:18:17;;;;;;;3.50;3.30;;;8.40;99.90;;;;;;5078860;28;20557;-62
2024/02/14 03:20:43;;;;;;;4.43;4.07;;;8.40;99.90;;;;;;5092253;28;20120;-62
2024/02/14 03:23:09;;;;;;;4.38;3.97;;;8.40;99.90;;;;;;5057667;28;20072;-61
2024/02/14 03:25:36;;;;;;;4.70;4.40;;;8.50;99.90;;;;;;5081253;28;20451;-62
2024/02/14 03:28:08;;;;;;;4.57;4.25;;;8.50;99.90;;;;;;5057965;28;20036;-61
2024/02/14 03:30:39;;;;;;;4.45;4.03;;;8.50;99.90;;;;;;5071048;28;20501;-62
2024/02/14 03:33:05;;;;;;;5.20;4.80;;;8.50;99.90;;;;;;5079232;28;20516;-62
2024/02/14 03:35:30;;;;;;;4.75;4.25;;;8.50;99.90;;;;;;5096320;28;20464;-62
2024/02/14 03:37:56;;;;;;;5.47;5.07;;;8.50;99.90;;;;;;5076570;28;20071;-62
2024/02/14 03:40:22;;;;;;;5.25;4.85;;;8.60;99.90;;;;;;5081047;28;20042;-62
2024/02/14 03:42:48;;;;;;;5.30;4.90;;;8.60;99.90;;;;;;5093845;28;20489;-62
2024/02/14 03:45:14;;;;;;;5.80;5.32;;;8.60;99.90;;;;;;5073557;28;20044;-62
2024/02/14 03:47:40;;;;;;;5.68;5.25;;;8.70;99.90;;;;;;5108179;27;20039;-62
2024/02/14 03:50:07;;;;;;;8.95;6.00;;;8.70;99.90;;;;;;5108512;27;20090;-62
2024/02/14 03:52:32;;;;;;;6.28;5.78;;;8.70;99.90;;;;;;5075878;28;20080;-61
2024/02/14 03:54:59;;;;;;;6.00;5.55;;;8.70;99.90;;;;;;5075903;28;20055;-62
2024/02/14 03:57:28;;;;;;;5.63;5.13;;;8.80;99.90;;;;;;5093588;28;20068;-62
2024/02/14 03:59:59;;;;;;;6.03;5.53;;;8.80;99.90;;;;;;5074744;28;20563;-61
2024/02/14 04:02:27;;;;;;;6.03;5.53;;;8.90;99.90;;;;;;5076810;28;20051;-61
2024/02/14 04:04:53;;;;;;;6.60;6.00;;;8.80;99.90;;;;;;5077545;28;20036;-61
2024/02/14 04:07:19;;;;;;;6.00;5.50;;;8.90;99.90;;;;;;5080539;28;20096;-61
2024/02/14 04:09:45;;;;;;;6.25;5.75;;;8.90;99.90;;;;;;5075174;28;20628;-62
2024/02/14 04:12:11;;;;;;;6.32;5.72;;;8.90;99.90;;;;;;5093292;28;20035;-61
2024/02/14 04:14:37;;;;;;;6.55;5.95;;;9.00;99.90;;;;;;5105821;28;20040;-61
2024/02/14 04:17:04;;;;;;;6.45;5.95;;;8.90;99.90;;;;;;5104598;27;20047;-61
2024/02/14 04:19:30;;;;;;;6.85;6.30;;;8.90;99.90;;;;;;5061812;28;20044;-62
2024/02/14 04:21:55;;;;;;;7.75;7.15;;;9.00;99.90;;;;;;5093860;28;20035;-61
2024/02/14 04:24:21;;;;;;;7.97;7.28;;;9.10;99.90;;;;;;5077918;28;20048;-61
2024/02/14 04:26:49;;;;;;;7.20;6.60;;;9.00;99.90;;;;;;5106146;28;20455;-62
2024/02/14 04:29:15;;;;;;;7.43;6.72;;;9.20;99.90;;;;;;5090982;28;20047;-62
2024/02/14 04:31:42;;;;;;;7.13;6.53;;;9.10;99.90;;;;;;5075668;28;20032;-62
2024/02/14 04:34:09;;;;;;;7.32;6.72;;;9.10;99.90;;;;;;5077569;28;20051;-62
2024/02/14 04:36:35;;;;;;;7.47;6.78;;;9.20;99.90;;;;;;5095488;28;20138;-62
2024/02/14 04:39:03;;;;;;;7.35;6.75;;;9.20;99.90;;;;;;5075381;28;20118;-62
2024/02/14 04:41:28;;;;;;;6.75;6.22;;;9.20;99.90;;;;;;5088790;28;20028;-62
2024/02/14 04:43:54;;;;;;;7.63;7.03;;;9.30;99.90;;;;;;5094129;28;20039;-61
2024/02/14 04:46:22;;;;;;;6.22;5.72;;;9.30;99.90;;;;;;5093490;28;20044;-61
2024/02/14 04:48:48;;;;;;;6.07;5.57;;;9.30;99.90;;;;;;5073065;28;20041;-61
2024/02/14 04:51:13;;;;;;;5.68;5.18;;;9.30;99.90;;;;;;5073969;28;20047;-61
2024/02/14 04:53:39;;;;;;;6.40;5.90;;;9.30;99.90;;;;;;5093648;28;20055;-62
2024/02/14 04:56:05;;;;;;;6.03;5.40;;;9.30;99.90;;;;;;5093011;28;20508;-62
2024/02/14 04:58:30;;;;;;;6.05;5.45;;;9.30;99.90;;;;;;5073653;28;20059;-62
2024/02/14 05:00:56;;;;;;;5.57;5.07;;;9.40;99.90;;;;;;5076392;28;20051;-61
2024/02/14 05:03:24;;;;;;;6.32;5.78;;;9.40;99.90;;;;;;5075426;28;20192;-62
2024/02/14 05:05:49;;;;;;;5.97;5.38;;;9.40;99.90;;;;;;5095642;28;20044;-61
2024/02/14 05:08:15;;;;;;;5.97;5.47;;;9.40;99.90;;;;;;5092870;28;20043;-61
2024/02/14 05:10:41;;;;;;;6.88;6.28;;;9.40;99.90;;;;;;5075730;28;20046;-61
2024/02/14 05:13:07;;;;;;;6.90;6.28;;;9.40;99.90;;;;;;5081381;28;20032;-62
2024/02/14 05:15:35;;;;;;;6.20;5.70;;;9.40;99.90;;;;;;5079292;28;20127;-62
2024/02/14 05:18:00;;;;;;;5.85;5.35;;;9.40;99.90;;;;;;5080931;28;20051;-62
2024/02/14 05:20:26;;;;;;;6.05;5.47;;;9.40;99.90;;;;;;5080228;28;20396;-62
2024/02/14 05:22:52;;;;;;;6.88;5.40;;;9.50;99.90;;;;;;5099385;28;20154;-62
2024/02/14 05:25:18;;;;;;;5.18;4.78;;;9.40;99.90;;;;;;5096332;28;20121;-62
2024/02/14 05:27:46;;;;;;;5.57;5.18;;;9.50;99.90;;;;;;5097600;28;20811;-62
2024/02/14 05:30:12;;;;;;;5.38;4.97;;;9.50;99.90;;;;;;5076768;28;20485;-62
2024/02/14 05:32:39;;;;;;;6.00;5.38;;;9.50;99.90;;;;;;5062191;28;20532;-61
2024/02/14 05:35:05;;;;;;;5.47;5.07;;;9.40;99.90;;;;;;5076595;28;20054;-61
2024/02/14 05:37:31;;;;;;;5.53;5.03;;;9.50;99.90;;;;;;5080447;28;20565;-61
2024/02/14 05:39:57;;;;;;;5.93;5.43;;;9.50;99.90;;;;;;5075180;28;20036;-61
2024/02/14 05:42:23;;;;;;;5.85;5.35;;;9.50;99.90;;;;;;5069881;28;20067;-62
2024/02/14 05:44:49;;;;;;;5.10;4.70;;;9.50;99.90;;;;;;5075718;28;20051;-62
2024/02/14 05:47:14;;;;;;;4.57;4.20;;;9.50;99.90;;;;;;5080051;28;20481;-62
2024/02/14 05:49:41;;;;;;;4.00;3.58;;;9.50;99.90;;;;;;5075642;28;20069;-62
2024/02/14 05:52:07;;;;;;;4.15;3.00;;;9.50;99.90;;;;;;5093972;28;20104;-62
2024/02/14 05:54:33;;;;;;;3.40;3.05;;;9.50;99.90;;;;;;5077456;28;20036;-62
2024/02/14 05:56:59;;;;;;;4.40;4.00;;;9.60;99.90;;;;;;5110203;27;20032;-62
2024/02/14 05:59:25;;;;;;;5.47;4.10;;;9.60;99.90;;;;;;5096180;28;20036;-62
2024/02/14 06:01:50;;;;;;;6.35;5.75;;;9.60;99.90;;;;;;5079028;28;20059;-62
2024/02/14 06:04:16;;;;;;;8.65;5.53;;;9.60;99.90;;;;;;5075378;28;20045;-62
2024/02/14 06:06:42;;;;;;;7.45;5.80;;;9.60;99.90;;;;;;5099520;28;20386;-62
2024/02/14 06:09:11;;;;;;;10.18;7.10;;;9.70;99.90;;;;;;5096556;28;20028;-62
2024/02/14 06:11:39;;;;;;;9.98;7.75;;;9.70;99.90;;;;;;5091962;28;20117;-61
2024/02/14 06:14:12;;;;;;;11.48;8.02;;;9.60;99.90;;;;;;5073907;28;20044;-62
2024/02/14 06:16:38;;;;;;;13.35;7.82;;;9.70;99.90;;;;;;5077743;28;21453;-62
2024/02/14 06:19:04;;;;;;;11.95;7.40;;;9.70;99.90;;;;;;5090948;28;20115;-61
2024/02/14 06:21:30;;;;;;;12.13;8.32;;;9.70;99.90;;;;;;5076485;28;20619;-62
2024/02/14 06:23:58;;;;;;;13.13;7.20;;;9.70;99.90;;;;;;5072908;28;20040;-62
2024/02/14 06:26:24;;;;;;;18.90;7.82;;;9.80;99.90;;;;;;5078929;28;20078;-62
2024/02/14 06:28:54;;;;;;;16.48;7.97;;;9.80;99.90;;;;;;5092933;28;20047;-61
2024/02/14 06:31:20;;;;;;;17.42;8.52;;;9.80;99.90;;;;;;5077214;28;20039;-62
2024/02/14 06:33:46;;;;;;;26.58;9.13;;;9.80;99.90;;;;;;5076269;28;20043;-61
2024/02/14 06:36:12;;;;;;;24.73;9.68;;;9.80;99.90;;;;;;5078173;28;20067;-62
2024/02/14 06:38:37;;;;;;;33.05;9.85;;;9.80;99.90;;;;;;5087392;28;20105;-61
2024/02/14 06:41:03;;;;;;;31.63;10.20;;;9.90;99.90;;;;;;5096554;28;20031;-61
2024/02/14 06:43:29;;;;;;;29.52;8.80;;;9.90;99.90;;;;;;5077049;28;20541;-61
2024/02/14 06:45:55;;;;;;;25.63;8.77;;;9.90;99.90;;;;;;5072678;28;20036;-62
2024/02/14 06:48:23;;;;;;;45.58;9.63;;;9.90;99.90;;;;;;5077633;28;20036;-62
2024/02/14 06:50:49;;;;;;;42.00;9.52;;;9.90;99.90;;;;;;5108956;27;20083;-62
2024/02/14 06:53:15;;;;;;;28.98;8.48;;;9.90;99.90;;;;;;5062885;28;20039;-62
2024/02/14 06:55:41;;;;;;;31.60;8.43;;;10.00;99.90;;;;;;5097029;28;20447;-62
2024/02/14 06:58:06;;;;;;;36.75;8.93;;;10.00;99.90;;;;;;5078112;28;20117;-62
2024/02/14 07:00:33;;;;;;;39.83;10.50;;;9.90;99.90;;;;;;5050851;28;20418;-62
2024/02/14 07:02:58;;;;;;;30.25;8.02;;;10.20;99.90;;;;;;5054657;28;20036;-62
2024/02/14 07:05:24;;;;;;;37.92;8.93;;;10.00;99.90;;;;;;5072676;28;20055;-61
2024/02/14 07:07:50;;;;;;;22.67;7.95;;;10.00;99.90;;;;;;5091909;28;20036;-62
2024/02/14 07:10:16;;;;;;;31.50;8.05;;;10.10;99.90;;;;;;5077861;28;20088;-62
2024/02/14 07:12:41;;;;;;;31.60;8.55;;;10.10;99.90;;;;;;5093424;28;20683;-61
2024/02/14 07:15:08;;;;;;;25.58;6.93;;;10.10;99.90;;;;;;5054024;28;20039;-62
2024/02/14 07:17:33;;;;;;;25.13;6.53;;;10.10;99.90;;;;;;5071580;28;20424;-62
2024/02/14 07:19:59;;;;;;;25.10;6.93;;;10.10;99.90;;;;;;5087786;28;20044;-62
2024/02/14 07:22:25;;;;;;;25.67;6.40;;;10.10;99.90;;;;;;5091140;28;20040;-62
2024/02/14 07:24:50;;;;;;;29.48;7.75;;;10.10;99.90;;;;;;5076153;28;20031;-62
2024/02/14 07:27:20;;;;;;;26.55;6.32;;;10.10;99.90;;;;;;5075754;28;20706;-61
2024/02/14 07:29:45;;;;;;;24.15;5.95;;;10.10;99.90;;;;;;5090736;28;20503;-62
2024/02/14 07:32:11;;;;;;;26.85;6.78;;;10.10;99.90;;;;;;5075818;28;20087;-62
2024/02/14 07:34:43;;;;;;;25.20;7.30;;;10.10;99.90;;;;;;5103400;27;20036;-62
2024/02/14 07:37:09;;;;;;;20.80;5.93;;;10.20;99.90;;;;;;5072313;28;20055;-62
2024/02/14 07:39:35;;;;;;;19.92;5.53;;;10.10;99.90;;;;;;5072114;28;20036;-61
2024/02/14 07:42:01;;;;;;;21.88;6.30;;;10.20;99.90;;;;;;5072355;28;20092;-62
2024/02/14 07:44:27;;;;;;;17.23;6.90;;;10.20;99.90;;;;;;5095047;28;20040;-62
2024/02/14 07:46:53;;;;;;;17.73;6.00;;;10.20;99.90;;;;;;5079179;28;20040;-62
2024/02/14 07:49:22;;;;;;;18.00;7.25;;;10.20;99.90;;;;;;5090917;28;20179;-62
2024/02/14 07:51:47;;;;;;;20.42;7.28;;;10.20;99.90;;;;;;5077793;28;20035;-62
2024/02/14 07:54:13;;;;;;;23.23;6.97;;;10.20;99.90;;;;;;5073705;28;20044;-62
2024/02/14 07:56:39;;;;;;;17.90;7.10;;;10.20;99.90;;;;;;5078133;28;20524;-62
2024/02/14 07:59:05;;;;;;;18.13;7.72;;;10.20;99.90;;;;;;5074782;28;20040;-62
2024/02/14 08:01:32;;;;;;;26.05;7.53;;;10.20;99.90;;;;;;5091397;28;20112;-62
2024/02/14 08:03:58;;;;;;;24.27;7.85;;;10.30;99.90;;;;;;5093649;28;20465;-62
2024/02/14 08:06:24;;;;;;;18.48;7.32;;;10.30;99.90;;;;;;5075091;28;20070;-62
2024/02/14 08:08:53;;;;;;;18.95;7.95;;;10.30;99.90;;;;;;5067984;28;20067;-62
2024/02/14 08:11:19;;;;;;;22.88;6.82;;;10.30;99.90;;;;;;5096722;28;20076;-62
2024/02/14 08:13:45;;;;;;;19.13;6.93;;;10.30;99.90;;;;;;5094347;28;20106;-61
2024/02/14 08:16:11;;;;;;;22.63;6.93;;;10.30;99.90;;;;;;5074696;28;20429;-62
2024/02/14 08:18:39;;;;;;;33.38;7.78;;;10.30;99.90;;;;;;5071156;28;20067;-62
2024/02/14 08:21:05;;;;;;;24.05;6.55;;;10.30;99.90;;;;;;5088040;28;20499;-62
2024/02/14 08:23:32;;;;;;;23.90;7.15;;;10.40;99.90;;;;;;5072767;28;20036;-62
2024/02/14 08:25:57;;;;;;;22.40;7.60;;;10.40;99.90;;;;;;5105922;28;20051;-62
2024/02/14 08:28:23;;;;;;;19.60;7.70;;;10.40;99.90;;;;;;5075073;28;20039;-62
2024/02/14 08:30:48;;;;;;;24.38;7.68;;;10.40;99.90;;;;;;5089739;28;20038;-62
2024/02/14 08:33:14;;;;;;;26.85;10.10;;;10.40;99.90;;;;;;5075840;28;20541;-62
2024/02/14 08:35:40;;;;;;;21.17;9.80;;;10.40;99.90;;;;;;5074997;28;20044;-62
2024/02/14 08:38:06;;;;;;;23.10;9.15;;;10.50;99.90;;;;;;5068801;28;20156;-62
2024/02/14 08:40:32;;;;;;;20.92;8.60;;;10.50;99.90;;;;;;5070459;28;20126;-62
2024/02/14 08:42:58;;;;;;;17.85;9.05;;;10.40;99.90;;;;;;5089525;28;20143;-62
2024/02/14 08:45:25;;;;;;;22.60;10.90;;;10.40;99.90;;;;;;5092621;28;20035;-61
2024/02/14 08:47:51;;;;;;;29.52;11.50;;;10.50;99.90;;;;;;5075152;28;20051;-62
2024/02/14 08:50:17;;;;;;;24.63;11.55;;;10.50;99.90;;;;;;5078863;28;20512;-62
2024/02/14 08:52:42;;;;;;;20.30;10.13;;;10.40;99.90;;;;;;5079888;28;20126;-62
2024/02/14 08:55:14;;;;;;;25.08;11.55;;;10.50;99.90;;;;;;5097675;28;20118;-62
2024/02/14 08:57:40;;;;;;;29.98;12.30;;;10.50;99.90;;;;;;5074971;28;20044;-62
2024/02/14 09:00:07;;;;;;;20.20;11.95;;;10.50;99.90;;;;;;5097096;28;20435;-61
2024/02/14 09:02:34;;;;;;;23.02;12.90;;;10.60;99.90;;;;;;5078176;28;20051;-62
2024/02/14 09:05:01;;;;;;;27.80;12.95;;;10.50;99.90;;;;;;5081611;28;20101;-62
2024/02/14 09:07:27;;;;;;;21.55;12.25;;;10.50;99.90;;;;;;5078371;28;20048;-62
2024/02/14 09:09:52;;;;;;;28.05;13.60;;;10.60;99.90;;;;;;5098016;28;20042;-62
2024/02/14 09:12:18;;;;;;;21.88;13.57;;;10.60;99.90;;;;;;5077698;28;20098;-62
2024/02/14 09:14:43;;;;;;;23.08;14.02;;;10.60;99.90;;;;;;5093317;28;20067;-62
2024/02/14 09:17:10;;;;;;;22.67;15.98;;;10.60;99.90;;;;;;5094504;28;20042;-62
2024/02/14 09:19:36;;;;;;;30.02;15.15;;;10.60;99.90;;;;;;5077958;28;20043;-62
2024/02/14 09:22:06;;;;;;;25.23;16.10;;;10.60;99.90;;;;;;5077994;28;20044;-62
2024/02/14 09:24:32;;;;;;;29.63;15.95;;;10.60;99.90;;;;;;5096808;28;20047;-62
2024/02/14 09:26:58;;;;;;;31.00;17.17;;;10.60;99.90;;;;;;5096455;28;20664;-62
2024/02/14 09:29:24;;;;;;;34.42;19.38;;;10.60;99.90;;;;;;5070682;28;20055;-61
2024/02/14 09:31:51;;;;;;;35.42;19.05;;;10.70;99.90;;;;;;5096070;28;20039;-62
2024/02/14 09:34:19;;;;;;;32.85;20.45;;;10.60;99.90;;;;;;5107384;27;20069;-61
2024/02/14 09:36:47;;;;;;;34.40;20.83;;;10.70;99.90;;;;;;5095300;28;20122;-62
2024/02/14 09:39:17;;;;;;;36.83;21.48;;;10.60;99.90;;;;;;5095023;28;20043;-62
2024/02/14 09:41:46;;;;;;;34.72;22.35;;;10.70;99.90;;;;;;5105361;27;20051;-62
2024/02/14 09:44:13;;;;;;;39.85;24.33;;;10.60;99.90;;;;;;5096159;28;20055;-62
2024/02/14 09:46:39;;;;;;;33.28;22.50;;;10.90;99.90;;;;;;5076521;28;20120;-62
2024/02/14 09:49:06;;;;;;;31.00;22.02;;;10.70;99.90;;;;;;5105234;27;20443;-62
2024/02/14 09:51:32;;;;;;;35.55;22.65;;;10.70;99.90;;;;;;5072717;28;20044;-62
2024/02/14 09:54:00;;;;;;;31.25;20.75;;;10.70;99.90;;;;;;5060736;28;20445;-62
2024/02/14 09:56:26;;;;;;;28.83;20.63;;;10.70;99.90;;;;;;5076095;28;20402;-62
2024/02/14 09:58:57;;;;;;;24.88;18.80;;;10.70;99.90;;;;;;5093837;28;20039;-62
2024/02/14 10:01:24;;;;;;;21.60;18.23;;;10.80;99.90;;;;;;5093219;28;20118;-62
2024/02/14 10:03:51;;;;;;;23.33;17.50;;;10.80;99.90;;;;;;5075398;28;20040;-62
2024/02/14 10:06:19;;;;;;;22.65;17.65;;;10.80;99.90;;;;;;5075489;28;20040;-62
2024/02/14 10:08:45;;;;;;;23.73;17.20;;;10.80;99.90;;;;;;5094892;28;20028;-62
2024/02/14 10:11:11;;;;;;;21.38;17.25;;;10.80;99.90;;;;;;5082255;28;20051;-62
2024/02/14 10:13:37;;;;;;;26.83;19.05;;;10.80;99.90;;;;;;5072511;28;20040;-62
2024/02/14 10:16:03;;;;;;;25.40;18.58;;;11.00;99.90;;;;;;5091661;28;20078;-62
2024/02/14 10:18:29;;;;;;;26.35;20.48;;;10.90;99.90;;;;;;5091464;28;20039;-62
2024/02/14 10:20:58;;;;;;;25.13;19.45;;;10.80;99.90;;;;;;5074801;28;20040;-62
2024/02/14 10:23:24;;;;;;;24.70;18.90;;;10.80;99.90;;;;;;5090405;28;20039;-62
2024/02/14 10:25:56;;;;;;;25.63;19.27;;;10.80;99.90;;;;;;5092907;28;20044;-61
2024/02/14 10:28:22;;;;;;;25.95;19.15;;;10.90;99.90;;;;;;5074634;28;20047;-61
2024/02/14 10:30:52;;;;;;;28.60;18.95;;;10.90;99.90;;;;;;5073967;28;20047;-62
2024/02/14 10:33:19;;;;;;;25.40;19.08;;;10.90;99.90;;;;;;5094155;28;20061;-62
2024/02/14 10:35:45;;;;;;;27.02;19.73;;;11.00;99.90;;;;;;5095238;28;21378;-62
2024/02/14 10:38:11;;;;;;;26.63;19.35;;;10.90;99.90;;;;;;5076745;28;20106;-62
2024/02/14 10:40:40;;;;;;;22.85;17.70;;;11.00;99.90;;;;;;5075232;28;20085;-62
2024/02/14 10:43:09;;;;;;;21.45;17.10;;;10.90;99.90;;;;;;5107585;27;20028;-62
2024/02/14 10:45:36;;;;;;;21.98;17.05;;;11.00;99.90;;;;;;5076195;28;20047;-62
2024/02/14 10:48:04;;;;;;;23.50;16.90;;;11.00;99.90;;;;;;5061228;28;20044;-62
2024/02/14 10:50:36;;;;;;;18.88;15.27;;;11.00;99.90;;;;;;5073429;28;20048;-62
2024/02/14 10:53:05;;;;;;;19.10;15.15;;;11.00;99.90;;;;;;5107915;27;20440;-62
2024/02/14 10:55:32;;;;;;;16.63;14.45;;;11.00;99.90;;;;;;5071842;28;20131;-62
2024/02/14 10:57:59;;;;;;;16.50;14.48;;;11.10;99.90;;;;;;5092084;28;20055;-62
2024/02/14 11:00:24;;;;;;;19.35;14.93;;;11.10;99.90;;;;;;5095851;28;20050;-62
2024/02/14 11:02:51;;;;;;;20.13;16.65;;;11.10;99.90;;;;;;5093331;28;20044;-62
2024/02/14 11:05:22;;;;;;;24.15;18.27;;;11.10;99.90;;;;;;5111020;27;20085;-62
2024/02/14 11:07:49;;;;;;;24.83;18.77;;;11.10;99.90;;;;;;5091450;28;20059;-62
2024/02/14 11:10:16;;;;;;;24.13;19.42;;;11.10;99.90;;;;;;5093389;28;20063;-62
2024/02/14 11:12:42;;;;;;;26.27;19.70;;;11.10;99.90;;;;;;5091294;28;20044;-62
2024/02/14 11:15:21;;;;;;;23.80;18.60;;;11.20;99.90;;;;;;5091764;28;20039;-62
2024/02/14 11:17:54;;;;;;;25.65;19.02;;;11.10;99.90;;;;;;5106148;27;20114;-62
2024/02/14 11:20:31;;;;;;;23.10;18.60;;;11.20;99.90;;;;;;5088047;28;20044;-62
2024/02/14 11:23:03;;;;;;;24.38;18.85;;;11.20;99.90;;;;;;5089538;28;20036;-62
2024/02/14 11:25:33;;;;;;;22.77;18.70;;;11.30;99.90;;;;;;5057546;28;20103;-62
2024/02/14 11:28:02;;;;;;;22.80;18.52;;;11.20;99.90;;;;;;5090378;28;20090;-62
2024/02/14 11:30:35;;;;;;;22.17;18.33;;;11.20;99.90;;;;;;5103786;27;20044;-62
2024/02/14 11:33:20;;;;;;;20.75;18.52;;;11.20;99.90;;;;;;5074099;28;20048;-62
2024/02/14 11:35:49;;;;;;;20.75;17.08;;;11.30;99.90;;;;;;5073552;28;20054;-62
2024/02/14 11:38:15;;;;;;;19.27;17.13;;;11.20;99.90;;;;;;5094060;28;20040;-62
2024/02/14 11:40:41;;;;;;;18.95;16.50;;;11.20;99.90;;;;;;5093947;28;20504;-62
2024/02/14 11:43:18;;;;;;;16.15;14.63;;;11.30;99.90;;;;;;5089730;28;20031;-62
2024/02/14 11:45:45;;;;;;;16.55;14.85;;;11.30;99.90;;;;;;5086697;28;20101;-62
2024/02/14 11:48:12;;;;;;;15.82;14.15;;;11.30;99.90;;;;;;5072641;28;20086;-62
2024/02/14 11:50:42;;;;;;;14.00;12.50;;;11.30;99.90;;;;;;5073770;28;20044;-62
2024/02/14 11:53:13;;;;;;;14.55;13.15;;;11.30;99.90;;;;;;5068516;28;20048;-62
2024/02/14 11:55:39;;;;;;;13.32;12.02;;;11.30;99.90;;;;;;5102207;27;20040;-62
2024/02/14 11:58:10;;;;;;;13.38;12.05;;;11.30;99.90;;;;;;5091325;28;20513;-62
2024/02/14 12:00:47;;;;;;;14.05;12.65;;;11.30;99.90;;;;;;5070273;28;20035;-62
2024/02/14 12:03:18;;;;;;;13.60;12.20;;;11.40;99.90;;;;;;5076962;28;20059;-62
2024/02/14 12:05:47;;;;;;;12.77;11.57;;;11.40;99.90;;;;;;5072954;28;20035;-62
2024/02/14 12:08:13;;;;;;;11.40;10.50;;;11.60;99.90;;;;;;5075502;28;20031;-62
2024/02/14 12:10:39;;;;;;;12.35;11.30;;;11.50;99.90;;;;;;5103329;28;20073;-62
2024/02/14 12:13:11;;;;;;;10.80;10.00;;;11.50;99.90;;;;;;5095175;28;20139;-62
2024/02/14 12:15:48;;;;;;;10.68;9.65;;;11.60;99.90;;;;;;5108339;27;20158;-62
2024/02/14 12:18:13;;;;;;;10.55;9.75;;;11.60;99.90;;;;;;5090046;28;20444;-62
2024/02/14 12:20:39;;;;;;;9.95;9.15;;;11.70;99.90;;;;;;5087790;28;20616;-62
2024/02/14 12:23:05;;;;;;;8.75;8.00;;;11.70;99.90;;;;;;5068683;28;20093;-62
2024/02/14 12:25:32;;;;;;;8.43;7.72;;;11.70;99.90;;;;;;5071817;28;20040;-62
2024/02/14 12:27:58;;;;;;;8.95;8.25;;;11.60;99.90;;;;;;5091760;28;20494;-62
2024/02/14 12:30:45;;;;;;;8.90;8.20;;;11.60;99.90;;;;;;5070785;28;20122;-62
2024/02/14 12:33:14;;;;;;;9.32;8.48;;;11.60;99.90;;;;;;5075166;28;20048;-62
2024/02/14 12:35:47;;;;;;;8.48;7.88;;;11.60;99.90;;;;;;5048500;28;20051;-62
2024/02/14 12:38:14;;;;;;;9.48;8.77;;;11.70;99.90;;;;;;5107335;28;20036;-62
2024/02/14 12:40:46;;;;;;;8.70;7.90;;;11.60;99.90;;;;;;5072652;28;20054;-62
2024/02/14 12:43:14;;;;;;;9.52;8.70;;;11.60;99.90;;;;;;5108409;28;20036;-62